Have a Safe July 4th! 

Flight Track Log - Related Links

Times and Time Zones

All times are in EDT time to prevent confusion due to time zone crossing. See the UAE35 flight status page for this flight to view local times or setup timezone preferences in your user account.

Time Position Orientation Groundspeed Altitude Reporting Facility
EDT Latitude Longitude Course Direction KTS MPH feet Rate Location/Type
Thu 11:37:44 PM 25.2730 55.3360 303° West 192 221 1,000  Level FlightAware ADS-B
Thu 11:37:59 PM 25.2860 55.3100 299° West 207 238 2,100 2,743 Climbing FlightAware ADS-B
Thu 11:38:19 PM 25.2920 55.2930 291° West 231 266 2,600 2,688 Climbing FlightAware ADS-B
Thu 11:40:00 PM 25.4394 55.1638 322° Northwest  Level Estimated
Thu 11:41:00 PM 25.5270 55.0869 322° Northwest  Level Estimated
Thu 11:42:00 PM 25.6132 55.0111 322° Northwest  Level Estimated
Thu 11:43:00 PM 25.6993 54.9351 322° Northwest  Level Estimated
Thu 11:44:00 PM 25.7854 54.8591 322° Northwest  Level Estimated
Thu 11:44:14 PM 25.4040 54.6950 322° Northwest 386 444 18,900  Level FlightAware ADS-B
Thu 11:44:54 PM 25.4200 54.6300 285° West 386 444 18,900  Level FlightAware ADS-B
Thu 11:45:34 PM 25.4350 54.5660 285° West 386 444 18,900  Level FlightAware ADS-B
Thu 11:46:14 PM 25.4510 54.5010 285° West 386 444 18,900  Level FlightAware ADS-B
Thu 11:46:54 PM 25.4670 54.4360 285° West 386 444 18,900  Level FlightAware ADS-B
Thu 11:47:44 PM 25.4860 54.3540 284° West 386 444 18,900 4,875 Level FlightAware ADS-B
Thu 11:48:39 PM 25.5320 54.1730 286° West 30,000 7,091 Climbing FlightAware ADS-B
Thu 11:49:34 PM 25.5600 54.0570 285° West 413 475 31,900 1,263 Climbing FlightAware ADS-B
Thu 11:50:14 PM 25.5790 53.9760 285° West 416 479 32,000 75 Climbing FlightAware ADS-B
Thu 11:50:54 PM 25.5960 53.8990 284° West 415 478 32,000 565 Level FlightAware ADS-B
Thu 11:51:39 PM 25.6210 53.8010 286° West 409 471 32,800 1,467 Climbing FlightAware ADS-B
Thu 11:52:24 PM 25.6420 53.7150 285° West 404 465 34,200 1,906 Climbing FlightAware ADS-B
Thu 11:53:04 PM 25.6620 53.6300 285° West 398 458 35,500 1,350 Climbing FlightAware ADS-B
Thu 11:53:44 PM 25.6810 53.5500 285° West 395 455 36,000 353 Climbing FlightAware ADS-B
Thu 11:54:29 PM 25.7020 53.4630 285° West 397 457 36,000  Level FlightAware ADS-B
Thu 11:55:09 PM 25.7200 53.3860 285° West 396 456 36,000  Level FlightAware ADS-B
Thu 11:55:49 PM 25.7380 53.3080 284° West 393 452 36,000  Level FlightAware ADS-B
Thu 11:56:34 PM 25.7510 53.2180 279° West 388 447 36,000  Level FlightAware ADS-B
Thu 11:57:14 PM 25.7590 53.1370 276° West 387 445 36,000  Level FlightAware ADS-B
Thu 11:57:59 PM 25.7770 53.0500 283° West 401 461 36,000  Level FlightAware ADS-B
Thu 11:58:39 PM 25.8110 52.9770 297° West 405 466 36,000  Level FlightAware ADS-B
Thu 11:59:24 PM 25.8510 52.8960 299° West 404 465 36,000  Level FlightAware ADS-B
Fri 12:00:04 AM 25.8870 52.8210 298° West 399 459 36,000  Level FlightAware ADS-B
Fri 12:00:44 AM 25.9220 52.7480 298° West 398 458 36,000  Level FlightAware ADS-B
Fri 12:01:29 AM 25.9600 52.6680 298° West 399 459 36,000  Level FlightAware ADS-B
Fri 12:02:09 AM 25.9960 52.5930 298° West 400 460 36,000  Level FlightAware ADS-B
Fri 12:02:54 AM 26.0350 52.5110 298° West 402 463 36,000  Level FlightAware ADS-B
Fri 12:03:49 AM 26.0830 52.4110 298° West 409 471 36,000  Level FlightAware ADS-B
Fri 12:04:29 AM 26.1190 52.3350 298° West 410 472 36,000  Level FlightAware ADS-B
Fri 12:05:09 AM 26.1540 52.2610 298° West 412 474 36,000  Level FlightAware ADS-B
Fri 12:05:54 AM 26.1940 52.1760 298° West 412 474 36,000  Level FlightAware ADS-B
Fri 12:06:34 AM 26.2310 52.0990 298° West 412 474 36,000  Level FlightAware ADS-B
Fri 12:07:19 AM 26.2700 52.0160 298° West 412 474 36,000  Level FlightAware ADS-B
Fri 12:07:59 AM 26.3050 51.9410 298° West 411 473 36,000  Level FlightAware ADS-B
Fri 12:08:44 AM 26.3450 51.8560 298° West 404 465 36,000  Level FlightAware ADS-B
Fri 12:09:24 AM 26.3790 51.7830 297° West 402 463 36,000  Level FlightAware ADS-B
Fri 12:10:04 AM 26.4150 51.7070 298° West 403 464 36,000  Level FlightAware ADS-B
Fri 12:11:04 AM 26.4660 51.5970 297° West 402 463 36,000  Level FlightAware ADS-B
Fri 12:11:44 AM 26.5020 51.5220 298° West 403 464 36,000  Level FlightAware ADS-B
Fri 12:12:24 AM 26.5410 51.4510 302° West 413 475 36,000  Level FlightAware ADS-B
Fri 12:13:09 AM 26.5900 51.3720 305° West 411 473 36,000  Level FlightAware ADS-B
Fri 12:13:49 AM 26.6340 51.3020 305° West 416 479 36,000  Level FlightAware ADS-B
Fri 12:14:34 AM 26.6850 51.2220 306° West 409 471 36,000  Level FlightAware ADS-B
Fri 12:15:09 AM 26.7210 51.1640 305° West 409 471 36,000  Level FlightAware ADS-B
Fri 12:15:54 AM 26.7710 51.0820 304° West 412 474 36,000  Level FlightAware ADS-B
Fri 12:16:39 AM 26.8200 51.0020 304° West 414 476 36,000  Level FlightAware ADS-B
Fri 12:17:19 AM 26.8660 50.9280 305° West 414 476 36,000  Level FlightAware ADS-B
Fri 12:18:04 AM 26.9130 50.8510 304° West 414 476 36,000  Level FlightAware ADS-B
Fri 12:18:44 AM 26.9540 50.7830 304° West 413 475 36,000  Level FlightAware ADS-B
Fri 12:19:24 AM 27.0000 50.7080 305° West 411 473 36,000  Level FlightAware ADS-B
Fri 12:20:09 AM 27.0470 50.6310 304° West 411 473 36,000  Level FlightAware ADS-B
Fri 12:20:49 AM 27.0890 50.5590 303° West 411 473 36,000  Level FlightAware ADS-B
Fri 12:21:29 AM 27.1250 50.4990 304° West 411 473 36,000  Level FlightAware ADS-B
Fri 12:22:09 AM 27.1600 50.4380 303° West 411 473 36,000  Level FlightAware ADS-B
Fri 12:22:49 AM 27.1950 50.3770 303° West 411 473 36,000  Level FlightAware ADS-B
Fri 12:23:39 AM 27.2390 50.3000 303° West 411 473 36,000  Level FlightAware ADS-B
Fri 12:24:19 AM 27.2740 50.2390 303° West 411 473 36,000  Level FlightAware ADS-B
Fri 12:24:59 AM 27.3090 50.1780 303° West 411 473 36,000  Level FlightAware ADS-B
Fri 12:25:39 AM 27.3450 50.1170 304° West 411 473 36,000  Level FlightAware ADS-B
Fri 12:26:19 AM 27.3800 50.0560 303° West 411 473 36,000  Level FlightAware ADS-B
Fri 12:27:09 AM 27.4240 49.9800 303° West 411 473 36,000  Level FlightAware ADS-B
Fri 12:27:49 AM 27.4590 49.9190 303° West 411 473 36,000  Level FlightAware ADS-B
Fri 12:28:29 AM 27.4940 49.8580 303° West 411 473 36,000  Level FlightAware ADS-B
Fri 12:29:09 AM 27.5290 49.7970 303° West 411 473 36,000  Level FlightAware ADS-B
Fri 12:29:49 AM 27.5650 49.7350 303° West 411 473 36,000  Level FlightAware ADS-B
Fri 12:32:00 AM 27.7526 49.5656 321° Northwest  Level Estimated
Fri 12:32:29 AM 27.9180 49.4340 321° Northwest 36,000  Level FlightAware ADS-B
Fri 12:33:14 AM 27.9960 49.3780 328° Northwest 434 499 36,000  Level FlightAware ADS-B
Fri 12:33:49 AM 28.0510 49.3390 328° Northwest 436 502 36,000  Level FlightAware ADS-B
Fri 12:34:34 AM 28.1280 49.2840 328° Northwest 435 501 36,000  Level FlightAware ADS-B
Fri 12:35:19 AM 28.2070 49.2290 328° Northwest 430 495 36,000  Level FlightAware ADS-B
Fri 12:35:59 AM 28.2750 49.1810 328° Northwest 429 494 36,000  Level FlightAware ADS-B
Fri 12:36:44 AM 28.3460 49.1300 328° Northwest 430 495 36,000  Level FlightAware ADS-B
Fri 12:37:24 AM 28.4140 49.0820 328° Northwest 430 495 36,000  Level FlightAware ADS-B
Fri 12:38:04 AM 28.4880 49.0290 328° Northwest 431 496 36,000  Level FlightAware ADS-B
Fri 12:38:49 AM 28.5620 48.9770 328° Northwest 434 499 36,000  Level FlightAware ADS-B
Fri 12:39:29 AM 28.6260 48.9310 328° Northwest 435 501 36,000  Level FlightAware ADS-B
Fri 12:40:14 AM 28.7050 48.8750 328° Northwest 436 502 36,000  Level FlightAware ADS-B
Fri 12:40:54 AM 28.7790 48.8210 327° Northwest 435 501 36,000  Level FlightAware ADS-B
Fri 12:41:29 AM 28.8380 48.7790 328° Northwest 436 502 36,000  Level FlightAware ADS-B
Fri 12:42:19 AM 28.9190 48.7210 328° Northwest 436 502 36,000  Level FlightAware ADS-B
Fri 12:42:59 AM 28.9810 48.6760 328° Northwest 435 501 36,000  Level FlightAware ADS-B
Fri 12:43:54 AM 29.0780 48.6060 328° Northwest 434 499 36,000  Level FlightAware ADS-B
Fri 12:44:29 AM 29.1360 48.5640 328° Northwest 434 499 36,000  Level FlightAware ADS-B
Fri 12:45:19 AM 29.2190 48.5050 328° Northwest 432 497 36,000  Level FlightAware ADS-B
Fri 12:46:04 AM 29.2990 48.4460 327° Northwest 429 494 36,000  Level FlightAware ADS-B
Fri 12:46:49 AM 29.3660 48.3980 328° Northwest 428 493 36,000  Level FlightAware ADS-B
Fri 12:47:34 AM 29.4510 48.3370 328° Northwest 428 493 36,000  Level FlightAware ADS-B
Fri 12:48:19 AM 29.5180 48.2870 327° Northwest 428 493 36,000  Level FlightAware ADS-B
Fri 12:49:04 AM 29.6010 48.2270 328° Northwest 425 489 36,000  Level FlightAware ADS-B
Fri 12:49:44 AM 29.6680 48.1780 328° Northwest 425 489 36,000  Level FlightAware ADS-B
Fri 12:50:44 AM 29.7610 48.1090 327° Northwest 425 489 36,000  Level FlightAware ADS-B
Fri 12:51:24 AM 29.8170 48.0670 327° Northwest 425 489 36,000  Level FlightAware ADS-B
Fri 12:52:04 AM 29.8760 48.0260 329° Northwest 425 489 36,000  Level FlightAware ADS-B
Fri 12:52:49 AM 29.9630 47.9620 327° Northwest 425 489 36,000  Level FlightAware ADS-B
Fri 12:53:44 AM 30.0440 47.8890 322° Northwest 411 473 36,000  Level FlightAware ADS-B
Fri 12:54:24 AM 30.0900 47.8270 311° West 407 468 36,000  Level FlightAware ADS-B
Fri 12:54:59 AM 30.1160 47.7930 311° West 407 468 36,000  Level FlightAware ADS-B
Fri 12:55:49 AM 30.1790 47.7090 311° West 409 471 36,000  Level FlightAware ADS-B
Fri 12:56:34 AM 30.2260 47.6440 310° West 409 471 36,000  Level FlightAware ADS-B
Fri 12:57:14 AM 30.2680 47.5870 310° West 409 471 36,000  Level FlightAware ADS-B
Fri 12:57:54 AM 30.3090 47.5290 309° West 409 471 36,000  Level FlightAware ADS-B
Fri 12:58:34 AM 30.3500 47.4720 310° West 409 471 36,000  Level FlightAware ADS-B
Fri 12:59:14 AM 30.3920 47.4150 311° West 409 471 36,000  Level FlightAware ADS-B
Fri 12:59:54 AM 30.4330 47.3580 310° West 409 471 36,000  Level FlightAware ADS-B
Fri 01:00:44 AM 30.4850 47.2870 310° West 409 471 36,000  Level FlightAware ADS-B
Fri 01:01:24 AM 30.5260 47.2290 309° West 409 471 36,000  Level FlightAware ADS-B
Fri 01:02:04 AM 30.5670 47.1720 310° West 409 471 36,000  Level FlightAware ADS-B
Fri 01:02:44 AM 30.6090 47.1150 311° West 409 471 36,000  Level FlightAware ADS-B
Fri 01:03:34 AM 30.6600 47.0430 309° West 409 471 36,000  Level FlightAware ADS-B
Fri 01:04:14 AM 30.7020 46.9860 311° West 409 471 36,000  Level FlightAware ADS-B
Fri 01:04:54 AM 30.7430 46.9290 310° West 409 471 36,000  Level FlightAware ADS-B
Fri 01:05:34 AM 30.7840 46.8710 309° West 409 471 36,000  Level FlightAware ADS-B
Fri 01:08:00 AM 30.9886 46.6698 320° Northwest  Level Estimated
Fri 01:09:00 AM 31.0726 46.5868 320° Northwest  Level Estimated
Fri 01:10:00 AM 31.1565 46.5038 320° Northwest  Level Estimated
Fri 01:11:00 AM 31.2404 46.4205 320° Northwest  Level Estimated
Fri 01:12:00 AM 31.3243 46.3372 320° Northwest  Level Estimated
Fri 01:13:00 AM 31.4081 46.2536 320° Northwest  Level Estimated
Fri 01:14:00 AM 31.4918 46.1699 320° Northwest  Level Estimated
Fri 01:15:00 AM 31.5755 46.0861 320° Northwest  Level Estimated
Fri 01:16:00 AM 31.6591 46.0021 319° Northwest  Level Estimated
Fri 01:17:00 AM 31.7426 45.9180 319° Northwest  Level Estimated
Fri 01:17:59 AM 32.0220 45.3760 319° Northwest 451 519 36,000  Level FlightAware ADS-B
Fri 01:18:00 AM 31.8261 45.8337 319° Northwest  Level Estimated
Fri 01:18:39 AM 32.1050 45.3380 339° North 452 520 36,000  Level FlightAware ADS-B
Fri 01:19:19 AM 32.1770 45.3010 336° Northwest 452 520 36,000  Level FlightAware ADS-B
Fri 01:20:19 AM 32.2920 45.2450 338° Northwest 451 519 36,000  Level FlightAware ADS-B
Fri 01:21:04 AM 32.3800 45.2050 339° North 450 518 36,000  Level FlightAware ADS-B
Fri 01:21:44 AM 32.4640 45.1670 339° North 450 518 36,000  Level FlightAware ADS-B
Fri 01:22:24 AM 32.5400 45.1320 339° North 450 518 36,000  Level FlightAware ADS-B
Fri 01:23:09 AM 32.6270 45.0910 338° Northwest 448 516 36,000  Level FlightAware ADS-B
Fri 01:23:49 AM 32.7040 45.0470 334° Northwest 446 513 36,000  Level FlightAware ADS-B
Fri 01:24:29 AM 32.7740 45.0040 333° Northwest 446 513 36,000  Level FlightAware ADS-B
Fri 01:25:14 AM 32.8600 44.9510 333° Northwest 445 512 36,000  Level FlightAware ADS-B
Fri 01:25:54 AM 32.9340 44.9070 333° Northwest 444 511 36,000  Level FlightAware ADS-B
Fri 01:26:39 AM 33.0150 44.8570 333° Northwest 445 512 36,000  Level FlightAware ADS-B
Fri 01:27:19 AM 33.0880 44.8120 333° Northwest 444 511 36,000  Level FlightAware ADS-B
Fri 01:27:59 AM 33.1610 44.7680 333° Northwest 444 511 36,000  Level FlightAware ADS-B
Fri 01:28:44 AM 33.2440 44.7240 336° Northwest 449 517 36,000  Level FlightAware ADS-B
Fri 01:29:24 AM 33.3240 44.6940 343° North 447 514 36,000  Level FlightAware ADS-B
Fri 01:30:09 AM 33.4140 44.6610 343° North 446 513 36,000  Level FlightAware ADS-B
Fri 01:30:49 AM 33.4930 44.6320 343° North 445 512 36,000  Level FlightAware ADS-B
Fri 01:31:29 AM 33.5690 44.5990 340° North 441 507 36,000  Level FlightAware ADS-B
Fri 01:32:14 AM 33.6570 44.5560 338° Northwest 441 507 36,000  Level FlightAware ADS-B
Fri 01:32:59 AM 33.7390 44.5160 338° Northwest 443 510 36,000  Level FlightAware ADS-B
Fri 01:33:34 AM 33.8050 44.4830 337° Northwest 444 511 36,000  Level FlightAware ADS-B
Fri 01:34:19 AM 33.8910 44.4410 338° Northwest 444 511 36,000  Level FlightAware ADS-B
Fri 01:35:04 AM 33.9790 44.3970 337° Northwest 446 513 36,000  Level FlightAware ADS-B
Fri 01:35:44 AM 34.0520 44.3610 338° Northwest 445 512 36,000  Level FlightAware ADS-B
Fri 01:36:29 AM 34.1420 44.3160 338° Northwest 446 513 36,000  Level FlightAware ADS-B
Fri 01:37:09 AM 34.2140 44.2810 338° Northwest 444 511 36,000  Level FlightAware ADS-B
Fri 01:37:54 AM 34.3030 44.2360 337° Northwest 442 509 36,000  Level FlightAware ADS-B
Fri 01:38:34 AM 34.3790 44.1980 338° Northwest 444 511 36,000  Level FlightAware ADS-B
Fri 01:39:14 AM 34.4550 44.1600 338° Northwest 445 512 36,000  Level FlightAware ADS-B
Fri 01:39:59 AM 34.5420 44.1170 338° Northwest 444 511 36,000  Level FlightAware ADS-B
Fri 01:40:39 AM 34.6180 44.0760 336° Northwest 447 514 36,000  Level FlightAware ADS-B
Fri 01:41:24 AM 34.7010 44.0330 337° Northwest 449 517 36,000  Level FlightAware ADS-B
Fri 01:41:59 AM 34.7700 43.9960 336° Northwest 448 516 36,000  Level FlightAware ADS-B
Fri 01:42:44 AM 34.8530 43.9530 337° Northwest 446 513 36,000  Level FlightAware ADS-B
Fri 01:43:24 AM 34.9300 43.9120 336° Northwest 446 513 36,000  Level FlightAware ADS-B
Fri 01:44:04 AM 35.0040 43.8730 337° Northwest 447 514 36,000  Level FlightAware ADS-B
Fri 01:44:54 AM 35.1010 43.8220 337° Northwest 446 513 36,000  Level FlightAware ADS-B
Fri 01:45:34 AM 35.1760 43.7820 336° Northwest 443 510 36,000  Level FlightAware ADS-B
Fri 01:46:14 AM 35.2500 43.7420 336° Northwest 442 509 36,000  Level FlightAware ADS-B
Fri 01:46:59 AM 35.3380 43.6960 337° Northwest 442 509 36,000  Level FlightAware ADS-B
Fri 01:47:39 AM 35.4130 43.6560 337° Northwest 442 509 36,000  Level FlightAware ADS-B
Fri 01:48:24 AM 35.4970 43.6110 336° Northwest 443 510 36,000  Level FlightAware ADS-B
Fri 01:49:04 AM 35.5730 43.5700 336° Northwest 443 510 36,000  Level FlightAware ADS-B
Fri 01:49:44 AM 35.6480 43.5300 337° Northwest 443 510 36,000  Level FlightAware ADS-B
Fri 01:50:29 AM 35.7300 43.4860 336° Northwest 443 510 36,000  Level FlightAware ADS-B
Fri 01:51:09 AM 35.8050 43.4450 336° Northwest 443 510 36,000  Level FlightAware ADS-B
Fri 01:51:49 AM 35.8810 43.4050 337° Northwest 443 510 36,000  Level FlightAware ADS-B
Fri 01:52:34 AM 35.9670 43.3580 336° Northwest 443 510 36,000  Level FlightAware ADS-B
Fri 01:53:14 AM 36.0410 43.3180 336° Northwest 443 510 36,000  Level FlightAware ADS-B
Fri 01:53:54 AM 36.1170 43.2770 336° Northwest 444 511 36,000  Level FlightAware ADS-B
Fri 01:54:39 AM 36.1990 43.2310 336° Northwest 444 511 36,000  Level FlightAware ADS-B
Fri 01:55:19 AM 36.2750 43.1900 336° Northwest 442 509 36,000  Level FlightAware ADS-B
Fri 01:56:04 AM 36.3600 43.1420 336° Northwest 443 510 36,000  Level FlightAware ADS-B
Fri 01:56:44 AM 36.4330 43.1020 336° Northwest 442 509 36,000  Level FlightAware ADS-B
Fri 01:57:29 AM 36.5170 43.0560 336° Northwest 441 507 36,000  Level FlightAware ADS-B
Fri 01:58:09 AM 36.5930 43.0140 336° Northwest 441 507 36,000  Level FlightAware ADS-B
Fri 01:58:49 AM 36.6680 42.9720 336° Northwest 443 510 36,000  Level FlightAware ADS-B
Fri 01:59:34 AM 36.7520 42.9250 336° Northwest 445 512 36,000  Level FlightAware ADS-B
Fri 02:00:14 AM 36.8280 42.8830 336° Northwest 446 513 36,000  Level FlightAware ADS-B
Fri 02:00:54 AM 36.9030 42.8420 336° Northwest 448 516 36,000  Level FlightAware ADS-B
Fri 02:01:39 AM 36.9890 42.7940 336° Northwest 448 516 36,000  Level FlightAware ADS-B
Fri 02:02:19 AM 37.0630 42.7530 336° Northwest 448 516 36,000  Level FlightAware ADS-B
Fri 02:03:04 AM 37.1500 42.7050 336° Northwest 448 516 36,000  Level FlightAware ADS-B
Fri 02:03:44 AM 37.2260 42.6610 335° Northwest 447 514 36,000  Level FlightAware ADS-B
Fri 02:04:29 AM 37.2990 42.5920 323° Northwest 448 516 36,000  Level FlightAware ADS-B
Fri 02:05:09 AM 37.3590 42.5230 318° Northwest 448 516 36,000  Level FlightAware ADS-B
Fri 02:05:54 AM 37.4290 42.4420 317° Northwest 447 514 36,000  Level FlightAware ADS-B
Fri 02:06:34 AM 37.4920 42.3700 318° Northwest 445 512 36,000  Level FlightAware ADS-B
Fri 02:07:14 AM 37.5510 42.3000 317° Northwest 446 513 36,000  Level FlightAware ADS-B
Fri 02:07:59 AM 37.6190 42.2220 318° Northwest 445 512 36,000  Level FlightAware ADS-B
Fri 02:08:39 AM 37.6790 42.1520 317° Northwest 445 512 36,000  Level FlightAware ADS-B
Fri 02:09:24 AM 37.7490 42.0710 318° Northwest 445 512 36,000  Level FlightAware ADS-B
Fri 02:10:04 AM 37.8080 42.0010 317° Northwest 444 511 36,000  Level FlightAware ADS-B
Fri 02:10:44 AM 37.8680 41.9310 317° Northwest 444 511 36,000  Level FlightAware ADS-B
Fri 02:11:29 AM 37.9320 41.8500 315° West 445 512 36,000  Level FlightAware ADS-B
Fri 02:12:09 AM 37.9860 41.7730 312° West 444 511 36,000  Level FlightAware ADS-B
Fri 02:12:49 AM 38.0370 41.6990 311° West 445 512 36,000  Level FlightAware ADS-B
Fri 02:13:29 AM 38.0830 41.6320 311° West 445 512 36,000  Level FlightAware ADS-B
Fri 02:14:09 AM 38.1280 41.5650 311° West 445 512 36,000  Level FlightAware ADS-B
Fri 02:14:59 AM 38.2160 41.4410 312° West 450 518 36,000  Level FlightAware ADS-B
Fri 02:15:39 AM 38.2700 41.3630 311° West 450 518 36,000  Level FlightAware ADS-B
Fri 02:16:19 AM 38.3160 41.2950 311° West 450 518 36,000  Level FlightAware ADS-B
Fri 02:16:59 AM 38.3620 41.2270 311° West 450 518 36,000  Level FlightAware ADS-B
Fri 02:17:39 AM 38.4090 41.1590 311° West 450 518 36,000  Level FlightAware ADS-B
Fri 02:18:29 AM 38.4670 41.0730 311° West 450 518 36,000  Level FlightAware ADS-B
Fri 02:19:09 AM 38.5130 41.0050 311° West 450 518 36,000  Level FlightAware ADS-B
Fri 02:19:49 AM 38.5600 40.9370 311° West 450 518 36,000  Level FlightAware ADS-B
Fri 02:20:29 AM 38.6060 40.8680 310° West 450 518 36,000  Level FlightAware ADS-B
Fri 02:21:19 AM 38.6640 40.7830 311° West 450 518 36,000  Level FlightAware ADS-B
Fri 02:21:59 AM 38.7110 40.7140 311° West 450 518 36,000  Level FlightAware ADS-B
Fri 02:22:39 AM 38.7570 40.6460 311° West 450 518 36,000  Level FlightAware ADS-B
Fri 02:23:19 AM 38.8040 40.5770 311° West 450 518 36,000  Level FlightAware ADS-B
Fri 02:23:59 AM 38.8500 40.5090 311° West 450 518 36,000  Level FlightAware ADS-B
Fri 02:24:49 AM 38.9080 40.4230 311° West 450 518 36,000 44 Level FlightAware ADS-B
Fri 02:27:00 AM 39.0746 40.2003 314° West  Level Estimated
Fri 02:28:00 AM 39.1507 40.0979 314° West  Level Estimated
Fri 02:29:00 AM 39.2268 39.9954 314° West  Level Estimated
Fri 02:30:00 AM 39.3028 39.8926 314° West  Level Estimated
Fri 02:31:00 AM 39.3786 39.7896 314° West  Level Estimated
Fri 02:32:00 AM 39.4544 39.6863 314° West  Level Estimated
Fri 02:33:00 AM 39.5301 39.5829 314° West  Level Estimated
Fri 02:34:00 AM 39.6057 39.4792 313° West  Level Estimated
Fri 02:35:00 AM 39.6813 39.3752 313° West  Level Estimated
Fri 02:36:00 AM 39.7567 39.2711 313° West  Level Estimated
Fri 02:37:00 AM 39.8320 39.1667 313° West  Level Estimated
Fri 02:38:00 AM 39.9072 39.0621 313° West  Level Estimated
Fri 02:39:00 AM 39.9824 38.9573 313° West  Level Estimated
Fri 02:40:00 AM 40.0574 38.8522 313° West  Level Estimated
Fri 02:41:00 AM 40.1324 38.7469 313° West  Level Estimated
Fri 02:42:00 AM 40.2072 38.6414 313° West  Level Estimated
Fri 02:43:00 AM 40.2820 38.5356 313° West  Level Estimated
Fri 02:44:00 AM 40.3567 38.4296 313° West  Level Estimated
Fri 02:45:00 AM 40.4313 38.3234 313° West  Level Estimated
Fri 02:46:00 AM 40.5057 38.2169 313° West  Level Estimated
Fri 02:47:00 AM 40.5801 38.1102 313° West  Level Estimated
Fri 02:48:00 AM 40.6544 38.0033 312° West  Level Estimated
Fri 02:49:00 AM 40.7285 37.8961 312° West  Level Estimated
Fri 02:50:00 AM 40.8026 37.7887 312° West  Level Estimated
Fri 02:51:00 AM 40.8766 37.6810 312° West  Level Estimated
Fri 02:52:00 AM 40.9505 37.5731 312° West  Level Estimated
Fri 02:53:00 AM 41.0243 37.4650 312° West  Level Estimated
Fri 02:54:00 AM 41.0979 37.3566 312° West  Level Estimated
Fri 02:55:00 AM 41.1715 37.2480 312° West  Level Estimated
Fri 02:56:00 AM 41.2450 37.1391 312° West  Level Estimated
Fri 02:57:00 AM 41.3183 37.0300 312° West  Level Estimated
Fri 02:58:00 AM 41.3916 36.9206 312° West  Level Estimated
Fri 02:59:00 AM 41.4648 36.8110 312° West  Level Estimated
Fri 03:00:00 AM 41.5378 36.7012 312° West  Level Estimated
Fri 03:01:00 AM 41.6108 36.5911 312° West  Level Estimated
Fri 03:02:00 AM 41.6836 36.4807 311° West  Level Estimated
Fri 03:03:00 AM 41.7564 36.3701 311° West  Level Estimated
Fri 03:04:00 AM 41.8290 36.2593 311° West  Level Estimated
Fri 03:05:00 AM 41.9015 36.1482 311° West  Level Estimated
Fri 03:06:00 AM 41.9739 36.0368 311° West  Level Estimated
Fri 03:07:00 AM 42.0462 35.9252 311° West  Level Estimated
Fri 03:08:00 AM 42.1185 35.8133 311° West  Level Estimated
Fri 03:09:00 AM 42.1905 35.7012 311° West  Level Estimated
Fri 03:09:22 AM 42.4690 34.5930 311° West 447 514 38,000  Level FlightAware ADS-B
Fri 03:10:00 AM 42.2625 35.5888 311° West  Level Estimated
Fri 03:10:02 AM 42.5190 34.5100 309° West 453 521 38,000  Level FlightAware ADS-B
Fri 03:10:42 AM 42.5550 34.4000 294° West 456 525 38,000  Level FlightAware ADS-B
Fri 03:11:27 AM 42.5950 34.2830 295° West 457 526 38,000  Level FlightAware ADS-B
Fri 03:12:07 AM 42.6330 34.1800 297° West 457 526 38,000  Level FlightAware ADS-B
Fri 03:12:52 AM 42.6750 34.0660 297° West 457 526 38,000  Level FlightAware ADS-B
Fri 03:13:32 AM 42.7130 33.9620 296° West 458 527 38,000  Level FlightAware ADS-B
Fri 03:14:12 AM 42.7470 33.8580 294° West 458 527 38,000  Level FlightAware ADS-B
Fri 03:14:57 AM 42.7880 33.7430 296° West 455 524 38,000  Level FlightAware ADS-B
Fri 03:15:37 AM 42.8330 33.6440 302° West 454 522 38,000  Level FlightAware ADS-B
Fri 03:16:22 AM 42.8830 33.5360 302° West 454 522 38,000  Level FlightAware ADS-B
Fri 03:17:02 AM 42.9280 33.4420 303° West 453 521 38,000  Level FlightAware ADS-B
Fri 03:17:42 AM 42.9740 33.3450 303° West 452 520 38,000  Level FlightAware ADS-B
Fri 03:18:27 AM 43.0250 33.2380 303° West 453 521 38,000  Level FlightAware ADS-B
Fri 03:19:07 AM 43.0710 33.1410 303° West 453 521 38,000  Level FlightAware ADS-B
Fri 03:19:52 AM 43.1220 33.0320 303° West 453 521 38,000  Level FlightAware ADS-B
Fri 03:20:27 AM 43.1620 32.9470 303° West 454 522 38,000  Level FlightAware ADS-B
Fri 03:21:17 AM 43.2170 32.8290 303° West 451 519 38,000  Level FlightAware ADS-B
Fri 03:21:57 AM 43.2630 32.7310 303° West 449 517 38,000  Level FlightAware ADS-B
Fri 03:22:37 AM 43.3060 32.6370 302° West 448 516 38,000  Level FlightAware ADS-B
Fri 03:23:17 AM 43.3520 32.5380 303° West 448 516 38,000  Level FlightAware ADS-B
Fri 03:24:02 AM 43.3990 32.4340 302° West 450 518 38,000  Level FlightAware ADS-B
Fri 03:24:47 AM 43.4510 32.3220 303° West 449 517 38,000  Level FlightAware ADS-B
Fri 03:25:27 AM 43.4940 32.2270 302° West 448 516 38,000  Level FlightAware ADS-B
Fri 03:26:12 AM 43.5440 32.1170 302° West 448 516 38,000  Level FlightAware ADS-B
Fri 03:26:52 AM 43.5880 32.0210 302° West 448 516 38,000  Level FlightAware ADS-B
Fri 03:27:32 AM 43.6320 31.9240 302° West 448 516 38,000  Level FlightAware ADS-B
Fri 03:28:17 AM 43.6810 31.8150 302° West 446 513 38,000  Level FlightAware ADS-B
Fri 03:28:57 AM 43.7240 31.7200 302° West 446 513 38,000  Level FlightAware ADS-B
Fri 03:29:42 AM 43.7730 31.6090 301° West 447 514 38,000  Level FlightAware ADS-B
Fri 03:30:22 AM 43.8170 31.5110 302° West 449 517 38,000  Level FlightAware ADS-B
Fri 03:31:02 AM 43.8590 31.4170 302° West 448 516 38,000  Level FlightAware ADS-B
Fri 03:31:47 AM 43.9090 31.3040 302° West 446 513 38,000  Level FlightAware ADS-B
Fri 03:32:27 AM 43.9520 31.2070 302° West 446 513 38,000  Level FlightAware ADS-B
Fri 03:33:12 AM 44.0000 31.0970 301° West 444 511 38,000  Level FlightAware ADS-B
Fri 03:33:52 AM 44.0420 31.0000 301° West 444 511 38,000  Level FlightAware ADS-B
Fri 03:34:32 AM 44.0850 30.9020 301° West 444 511 38,000  Level FlightAware ADS-B
Fri 03:35:17 AM 44.1330 30.7920 301° West 442 509 38,000  Level FlightAware ADS-B
Fri 03:35:57 AM 44.1750 30.6950 301° West 443 510 38,000  Level FlightAware ADS-B
Fri 03:36:37 AM 44.2170 30.5970 301° West 442 509 38,000  Level FlightAware ADS-B
Fri 03:37:22 AM 44.2610 30.4960 301° West 442 509 38,000  Level FlightAware ADS-B
Fri 03:38:17 AM 44.3110 30.3780 301° West 443 510 38,000  Level FlightAware ADS-B
Fri 03:38:57 AM 44.3590 30.2670 301° West 444 511 38,000  Level FlightAware ADS-B
Fri 03:39:57 AM 44.4180 30.1270 301° West 442 509 38,000  Level FlightAware ADS-B
Fri 03:40:37 AM 44.4660 30.0320 305° West 438 504 38,000  Level FlightAware ADS-B
Fri 03:41:17 AM 44.5140 29.9380 306° West 438 504 38,000  Level FlightAware ADS-B
Fri 03:41:52 AM 44.5570 29.8510 305° West 439 505 38,000  Level FlightAware ADS-B
Fri 03:42:57 AM 44.6300 29.7030 305° West 441 507 38,000  Level FlightAware ADS-B
Fri 03:43:37 AM 44.6750 29.6110 305° West 441 507 38,000  Level FlightAware ADS-B
Fri 03:44:12 AM 44.7170 29.5240 304° West 441 507 38,000  Level FlightAware ADS-B
Fri 03:45:17 AM 44.7920 29.3700 304° West 441 507 38,000  Level FlightAware ADS-B
Fri 03:45:52 AM 44.8320 29.2870 304° West 441 507 38,000  Level FlightAware ADS-B
Fri 03:46:42 AM 44.8870 29.1740 305° West 442 509 38,000  Level FlightAware ADS-B
Fri 03:47:37 AM 44.9550 29.0320 304° West 443 510 38,000  Level FlightAware ADS-B
Fri 03:48:17 AM 45.0030 28.9330 304° West 443 510 38,000  Level FlightAware ADS-B
Fri 03:49:02 AM 45.0490 28.8360 304° West 444 511 38,000  Level FlightAware ADS-B
Fri 03:49:42 AM 45.0950 28.7390 304° West 444 511 38,000  Level FlightAware ADS-B
Fri 03:50:27 AM 45.1430 28.6400 305° West 445 512 38,000  Level FlightAware ADS-B
Fri 03:50:57 AM 45.1760 28.5710 304° West 443 510 38,000  Level FlightAware ADS-B
Fri 03:51:47 AM 45.2370 28.4410 304° West 443 510 38,000  Level FlightAware ADS-B
Fri 03:52:32 AM 45.2880 28.3340 304° West 441 507 38,000  Level FlightAware ADS-B
Fri 03:53:12 AM 45.3330 28.2380 304° West 441 507 38,000  Level FlightAware ADS-B
Fri 03:53:52 AM 45.3810 28.1360 304° West 442 509 38,000  Level FlightAware ADS-B
Fri 03:54:37 AM 45.4310 28.0290 304° West 442 509 38,000  Level FlightAware ADS-B
Fri 03:55:17 AM 45.4750 27.9360 304° West 442 509 38,000  Level FlightAware ADS-B
Fri 03:55:57 AM 45.5230 27.8320 303° West 443 510 38,000  Level FlightAware ADS-B
Fri 03:56:42 AM 45.5700 27.7300 303° West 442 509 38,000  Level FlightAware ADS-B
Fri 03:57:27 AM 45.6230 27.6160 304° West 443 510 38,000  Level FlightAware ADS-B
Fri 03:58:07 AM 45.6680 27.5170 303° West 443 510 38,000  Level FlightAware ADS-B
Fri 03:58:42 AM 45.7060 27.4330 303° West 443 510 38,000  Level FlightAware ADS-B
Fri 03:59:22 AM 45.7530 27.3320 304° West 443 510 38,000  Level FlightAware ADS-B
Fri 04:00:12 AM 45.8120 27.2020 303° West 443 510 38,000  Level FlightAware ADS-B
Fri 04:00:52 AM 45.8540 27.1090 303° West 443 510 38,000  Level FlightAware ADS-B
Fri 04:01:37 AM 45.9070 26.9920 303° West 444 511 38,000  Level FlightAware ADS-B
Fri 04:02:17 AM 45.9520 26.8910 303° West 444 511 38,000  Level FlightAware ADS-B
Fri 04:02:57 AM 45.9940 26.7960 302° West 443 510 38,000  Level FlightAware ADS-B
Fri 04:03:42 AM 46.0420 26.6900 303° West 443 510 38,000  Level FlightAware ADS-B
Fri 04:04:27 AM 46.0950 26.5700 303° West 443 510 38,000  Level FlightAware ADS-B
Fri 04:05:07 AM 46.1350 26.4790 302° West 444 511 38,000  Level FlightAware ADS-B
Fri 04:05:47 AM 46.1800 26.3770 303° West 445 512 38,000  Level FlightAware ADS-B
Fri 04:06:32 AM 46.2290 26.2650 302° West 445 512 38,000  Level FlightAware ADS-B
Fri 04:07:12 AM 46.2750 26.1610 303° West 446 513 38,000  Level FlightAware ADS-B
Fri 04:07:52 AM 46.3160 26.0660 302° West 446 513 38,000  Level FlightAware ADS-B
Fri 04:08:32 AM 46.3630 25.9580 302° West 446 513 38,000  Level FlightAware ADS-B
Fri 04:09:12 AM 46.4060 25.8590 302° West 447 514 38,000  Level FlightAware ADS-B
Fri 04:09:57 AM 46.4540 25.7480 302° West 446 513 38,000  Level FlightAware ADS-B
Fri 04:10:42 AM 46.5040 25.6310 302° West 446 513 38,000  Level FlightAware ADS-B
Fri 04:11:17 AM 46.5440 25.5380 302° West 447 514 38,000  Level FlightAware ADS-B
Fri 04:12:07 AM 46.5960 25.4160 302° West 446 513 38,000  Level FlightAware ADS-B
Fri 04:12:47 AM 46.6410 25.3090 302° West 447 514 38,000  Level FlightAware ADS-B
Fri 04:13:32 AM 46.6870 25.2010 302° West 448 516 38,000  Level FlightAware ADS-B
Fri 04:14:12 AM 46.7310 25.0960 301° West 448 516 38,000  Level FlightAware ADS-B
Fri 04:14:52 AM 46.7750 24.9930 302° West 450 518 38,000  Level FlightAware ADS-B
Fri 04:15:32 AM 46.8190 24.8870 301° West 450 518 38,000  Level FlightAware ADS-B
Fri 04:16:22 AM 46.8740 24.7550 301° West 450 518 38,000  Level FlightAware ADS-B
Fri 04:18:00 AM 46.9796 24.5420 306° West  Level Estimated
Fri 04:19:00 AM 47.0440 24.4112 306° West  Level Estimated
Fri 04:20:00 AM 47.1083 24.2801 306° West  Level Estimated
Fri 04:21:00 AM 47.1724 24.1487 306° West  Level Estimated
Fri 04:22:00 AM 47.2364 24.0169 306° West  Level Estimated
Fri 04:23:00 AM 47.3003 23.8849 306° West  Level Estimated
Fri 04:24:00 AM 47.3639 23.7525 305° West  Level Estimated
Fri 04:25:00 AM 47.4275 23.6198 305° West  Level Estimated
Fri 04:26:00 AM 47.4908 23.4867 305° West  Level Estimated
Fri 04:26:37 AM 47.5210 23.1490 305° West 447 514 38,000  Level FlightAware ADS-B
Fri 04:27:17 AM 47.5630 23.0400 300° West 447 514 38,000  Level FlightAware ADS-B
Fri 04:27:57 AM 47.6020 22.9410 300° West 448 516 38,000  Level FlightAware ADS-B
Fri 04:28:42 AM 47.6460 22.8280 300° West 449 517 38,000  Level FlightAware ADS-B
Fri 04:29:22 AM 47.6850 22.7260 300° West 449 517 38,000  Level FlightAware ADS-B
Fri 04:30:07 AM 47.7380 22.5890 300° West 443 510 38,000  Level FlightAware ADS-B
Fri 04:30:47 AM 47.7790 22.4810 299° West 443 510 38,000  Level FlightAware ADS-B
Fri 04:31:32 AM 47.8240 22.3610 299° West 448 516 38,000  Level FlightAware ADS-B
Fri 04:32:12 AM 47.8630 22.2530 298° West 449 517 38,000  Level FlightAware ADS-B
Fri 04:32:52 AM 47.9040 22.1410 299° West 448 516 38,000  Level FlightAware ADS-B
Fri 04:33:37 AM 47.9490 22.0160 298° West 448 516 38,000  Level FlightAware ADS-B
Fri 04:34:17 AM 47.9870 21.9090 298° West 449 517 38,000  Level FlightAware ADS-B
Fri 04:34:57 AM 48.0270 21.7980 298° West 448 516 38,000  Level FlightAware ADS-B
Fri 04:35:42 AM 48.0700 21.6780 298° West 448 516 38,000  Level FlightAware ADS-B
Fri 04:36:22 AM 48.1080 21.5700 298° West 447 514 38,000  Level FlightAware ADS-B
Fri 04:37:07 AM 48.1520 21.4450 298° West 446 513 38,000  Level FlightAware ADS-B
Fri 04:37:47 AM 48.1910 21.3350 298° West 447 514 38,000  Level FlightAware ADS-B
Fri 04:38:32 AM 48.2330 21.2150 298° West 447 514 38,000  Level FlightAware ADS-B
Fri 04:39:12 AM 48.2720 21.1050 298° West 447 514 38,000  Level FlightAware ADS-B
Fri 04:39:52 AM 48.3100 20.9940 297° West 448 516 38,000  Level FlightAware ADS-B
Fri 04:40:37 AM 48.3490 20.8830 298° West 448 516 38,000  Level FlightAware ADS-B
Fri 04:41:17 AM 48.3890 20.7650 297° West 447 514 38,000  Level FlightAware ADS-B
Fri 04:41:57 AM 48.4260 20.6580 298° West 447 514 38,000  Level FlightAware ADS-B
Fri 04:42:42 AM 48.4710 20.5260 297° West 446 513 38,000  Level FlightAware ADS-B
Fri 04:43:22 AM 48.5080 20.4160 297° West 445 512 38,000  Level FlightAware ADS-B
Fri 04:44:07 AM 48.5500 20.2930 297° West 446 513 38,000  Level FlightAware ADS-B
Fri 04:44:47 AM 48.5880 20.1790 297° West 446 513 38,000  Level FlightAware ADS-B
Fri 04:45:32 AM 48.6300 20.0550 297° West 447 514 38,000  Level FlightAware ADS-B
Fri 04:46:12 AM 48.6670 19.9430 297° West 448 516 38,000  Level FlightAware ADS-B
Fri 04:46:52 AM 48.7040 19.8310 297° West 448 516 38,000  Level FlightAware ADS-B
Fri 04:47:37 AM 48.7480 19.7070 298° West 450 518 38,000  Level FlightAware ADS-B
Fri 04:48:17 AM 48.7870 19.5960 298° West 450 518 38,000  Level FlightAware ADS-B
Fri 04:49:02 AM 48.8300 19.4700 297° West 450 518 38,000  Level FlightAware ADS-B
Fri 04:49:42 AM 48.8680 19.3590 298° West 450 518 38,000  Level FlightAware ADS-B
Fri 04:50:22 AM 48.9070 19.2460 298° West 449 517 38,000  Level FlightAware ADS-B
Fri 04:51:07 AM 48.9490 19.1210 297° West 449 517 38,000  Level FlightAware ADS-B
Fri 04:51:47 AM 48.9890 19.0050 298° West 448 516 38,000  Level FlightAware ADS-B
Fri 04:52:27 AM 49.0230 18.9030 297° West 447 514 38,000  Level FlightAware ADS-B
Fri 04:53:12 AM 49.0670 18.7730 297° West 447 514 38,000  Level FlightAware ADS-B
Fri 04:53:52 AM 49.1040 18.6600 297° West 446 513 38,000  Level FlightAware ADS-B
Fri 04:54:37 AM 49.1430 18.5290 295° West 447 514 38,000  Level FlightAware ADS-B
Fri 04:55:17 AM 49.1750 18.4140 293° West 446 513 38,000  Level FlightAware ADS-B
Fri 04:55:57 AM 49.2090 18.2960 294° West 446 513 38,000  Level FlightAware ADS-B
Fri 04:56:42 AM 49.2460 18.1680 294° West 447 514 38,000  Level FlightAware ADS-B
Fri 04:57:22 AM 49.2740 18.0540 291° West 442 509 38,000  Level FlightAware ADS-B
Fri 04:58:02 AM 49.2970 17.9340 286° West 443 510 38,000  Level FlightAware ADS-B
Fri 04:58:47 AM 49.3260 17.7960 288° West 443 510 38,000  Level FlightAware ADS-B
Fri 04:59:27 AM 49.3520 17.6770 289° West 443 510 38,000  Level FlightAware ADS-B
Fri 05:00:07 AM 49.3780 17.5570 288° West 443 510 38,000  Level FlightAware ADS-B
Fri 05:00:57 AM 49.4090 17.4100 288° West 443 510 38,000  Level FlightAware ADS-B
Fri 05:01:37 AM 49.4340 17.2880 288° West 443 510 38,000  Level FlightAware ADS-B
Fri 05:02:17 AM 49.4580 17.1680 287° West 443 510 38,000  Level FlightAware ADS-B
Fri 05:02:57 AM 49.4820 17.0470 287° West 444 511 38,000  Level FlightAware ADS-B
Fri 05:03:37 AM 49.5050 16.9260 286° West 444 511 38,000  Level FlightAware ADS-B
Fri 05:04:22 AM 49.5310 16.7920 287° West 444 511 38,000  Level FlightAware ADS-B
Fri 05:04:57 AM 49.5510 16.6920 287° West 445 512 38,000  Level FlightAware ADS-B
Fri 05:05:47 AM 49.5810 16.5350 286° West 445 512 38,000  Level FlightAware ADS-B
Fri 05:06:32 AM 49.6070 16.3990 286° West 445 512 38,000  Level FlightAware ADS-B
Fri 05:07:12 AM 49.6290 16.2800 286° West 445 512 38,000  Level FlightAware ADS-B
Fri 05:07:52 AM 49.6530 16.1580 287° West 445 512 38,000  Level FlightAware ADS-B
Fri 05:08:37 AM 49.6770 16.0270 286° West 445 512 38,000  Level FlightAware ADS-B
Fri 05:09:17 AM 49.7000 15.9030 286° West 444 511 38,000  Level FlightAware ADS-B
Fri 05:10:02 AM 49.7240 15.7710 286° West 441 507 38,000  Level FlightAware ADS-B
Fri 05:10:42 AM 49.7480 15.6440 286° West 439 505 38,000  Level FlightAware ADS-B
Fri 05:11:22 AM 49.7700 15.5210 286° West 439 505 38,000  Level FlightAware ADS-B
Fri 05:12:07 AM 49.7940 15.3890 286° West 439 505 38,000  Level FlightAware ADS-B
Fri 05:12:47 AM 49.8160 15.2660 286° West 441 507 38,000  Level FlightAware ADS-B
Fri 05:13:27 AM 49.8370 15.1460 285° West 440 506 38,000  Level FlightAware ADS-B
Fri 05:14:12 AM 49.8620 15.0060 286° West 441 507 38,000  Level FlightAware ADS-B
Fri 05:14:52 AM 49.8840 14.8830 286° West 441 507 38,000  Level FlightAware ADS-B
Fri 05:15:37 AM 49.9070 14.7470 285° West 442 509 38,000  Level FlightAware ADS-B
Fri 05:16:17 AM 49.9290 14.6260 286° West 439 505 38,000  Level FlightAware ADS-B
Fri 05:17:02 AM 49.9520 14.4910 285° West 439 505 38,000  Level FlightAware ADS-B
Fri 05:17:42 AM 49.9730 14.3650 285° West 441 507 38,000  Level FlightAware ADS-B
Fri 05:18:22 AM 49.9940 14.2410 285° West 441 507 38,000  Level FlightAware ADS-B
Fri 05:18:57 AM 50.0110 14.1390 285° West 441 507 38,000  Level FlightAware ADS-B
Fri 05:19:47 AM 50.0370 13.9860 285° West 441 507 38,000  Level FlightAware ADS-B
Fri 05:20:32 AM 50.0600 13.8460 284° West 444 511 38,000  Level FlightAware ADS-B
Fri 05:21:12 AM 50.0900 13.7270 291° West 448 516 38,000  Level FlightAware ADS-B
Fri 05:21:47 AM 50.1230 13.6250 297° West 448 516 38,000  Level FlightAware ADS-B
Fri 05:22:37 AM 50.1690 13.4860 297° West 449 517 38,000  Level FlightAware ADS-B
Fri 05:23:17 AM 50.2050 13.3750 297° West 451 519 38,000  Level FlightAware ADS-B
Fri 05:24:02 AM 50.2480 13.2440 297° West 449 517 38,000  Level FlightAware ADS-B
Fri 05:24:42 AM 50.2890 13.1200 297° West 446 513 38,000  Level FlightAware ADS-B
Fri 05:25:17 AM 50.3220 13.0180 297° West 447 514 38,000  Level FlightAware ADS-B
Fri 05:26:07 AM 50.3670 12.8810 297° West 446 513 38,000  Level FlightAware ADS-B
Fri 05:26:47 AM 50.4060 12.7590 297° West 446 513 38,000  Level FlightAware ADS-B
Fri 05:27:27 AM 50.4410 12.6500 297° West 446 513 38,000  Level FlightAware ADS-B
Fri 05:28:12 AM 50.4830 12.5180 297° West 442 509 38,000  Level FlightAware ADS-B
Fri 05:28:52 AM 50.5170 12.4100 296° West 440 506 38,000  Level FlightAware ADS-B
Fri 05:29:37 AM 50.5570 12.2840 297° West 442 509 38,000  Level FlightAware ADS-B
Fri 05:30:17 AM 50.5940 12.1640 296° West 441 507 38,000  Level FlightAware ADS-B
Fri 05:30:57 AM 50.6320 12.0420 296° West 442 509 38,000  Level FlightAware ADS-B
Fri 05:31:42 AM 50.6690 11.9220 296° West 443 510 38,000  Level FlightAware ADS-B
Fri 05:32:27 AM 50.7120 11.7830 296° West 445 512 38,000  Level FlightAware ADS-B
Fri 05:33:07 AM 50.7480 11.6650 296° West 448 516 38,000  Level FlightAware ADS-B
Fri 05:33:47 AM 50.7820 11.5510 295° West 443 510 38,000  Level FlightAware ADS-B
Fri 05:34:32 AM 50.8210 11.4230 296° West 440 506 38,000  Level FlightAware ADS-B
Fri 05:35:12 AM 50.8550 11.3100 296° West 439 505 38,000  Level FlightAware ADS-B
Fri 05:35:52 AM 50.8920 11.1870 296° West 437 503 38,000  Level FlightAware ADS-B
Fri 05:36:37 AM 50.9290 11.0600 295° West 437 503 38,000  Level FlightAware ADS-B
Fri 05:37:17 AM 50.9650 10.9400 296° West 437 503 38,000  Level FlightAware ADS-B
Fri 05:38:02 AM 51.0030 10.8120 295° West 437 503 38,000  Level FlightAware ADS-B
Fri 05:38:42 AM 51.0380 10.6920 295° West 441 507 38,000  Level FlightAware ADS-B
Fri 05:39:22 AM 51.0730 10.5730 295° West 444 511 38,000  Level FlightAware ADS-B
Fri 05:40:02 AM 51.1040 10.4640 294° West 445 512 38,000  Level FlightAware ADS-B
Fri 05:40:47 AM 51.1440 10.3250 295° West 445 512 38,000  Level FlightAware ADS-B
Fri 05:41:32 AM 51.1810 10.1960 295° West 446 513 38,000  Level FlightAware ADS-B
Fri 05:42:12 AM 51.2180 10.0670 295° West 447 514 38,000  Level FlightAware ADS-B
Fri 05:42:57 AM 51.2550 9.9370 294° West 448 516 38,000  Level FlightAware ADS-B
Fri 05:43:37 AM 51.2890 9.8150 294° West 447 514 38,000  Level FlightAware ADS-B
Fri 05:44:17 AM 51.3230 9.6950 294° West 446 513 38,000  Level FlightAware ADS-B
Fri 05:44:47 AM 51.3470 9.6070 294° West 446 513 38,000  Level FlightAware ADS-B
Fri 05:45:27 AM 51.3790 9.4910 294° West 447 514 38,000  Level FlightAware ADS-B
Fri 05:46:12 AM 51.4190 9.3460 294° West 449 517 38,000  Level FlightAware ADS-B
Fri 05:46:47 AM 51.4450 9.2530 294° West 449 517 38,000  Level FlightAware ADS-B
Fri 05:47:37 AM 51.4880 9.0940 294° West 451 519 38,000  Level FlightAware ADS-B
Fri 05:48:17 AM 51.5220 8.9710 294° West 452 520 38,000  Level FlightAware ADS-B
Fri 05:48:57 AM 51.5550 8.8460 293° West 452 520 38,000  Level FlightAware ADS-B
Fri 05:49:42 AM 51.5940 8.7010 293° West 454 522 38,000  Level FlightAware ADS-B
Fri 05:50:22 AM 51.6270 8.5810 294° West 454 522 38,000  Level FlightAware ADS-B
Fri 05:51:02 AM 51.6590 8.4590 293° West 455 524 38,000  Level FlightAware ADS-B
Fri 05:51:47 AM 51.6950 8.3220 293° West 453 521 38,000  Level FlightAware ADS-B
Fri 05:52:27 AM 51.7280 8.1970 293° West 452 520 38,000  Level FlightAware ADS-B
Fri 05:53:12 AM 51.7670 8.0490 293° West 450 518 38,000  Level FlightAware ADS-B
Fri 05:53:52 AM 51.7930 7.9460 292° West 450 518 38,000  Level FlightAware ADS-B
Fri 05:54:27 AM 51.8260 7.8200 293° West 449 517 38,000  Level FlightAware ADS-B
Fri 05:55:12 AM 51.8610 7.6840 293° West 447 514 38,000  Level FlightAware ADS-B
Fri 05:55:57 AM 51.8960 7.5440 292° West 444 511 38,000  Level FlightAware ADS-B
Fri 05:56:42 AM 51.9310 7.4060 292° West 440 506 38,000  Level FlightAware ADS-B
Fri 05:57:22 AM 51.9620 7.2840 292° West 439 505 38,000  Level FlightAware ADS-B
Fri 05:58:02 AM 51.9920 7.1660 292° West 439 505 38,000  Level FlightAware ADS-B
Fri 05:58:47 AM 52.0270 7.0230 292° West 441 507 38,000  Level FlightAware ADS-B
Fri 05:59:27 AM 52.0580 6.9010 292° West 438 504 38,000  Level FlightAware ADS-B
Fri 06:00:12 AM 52.0910 6.7670 292° West 437 503 38,000  Level FlightAware ADS-B
Fri 06:00:52 AM 52.1200 6.6480 292° West 438 504 38,000  Level FlightAware ADS-B
Fri 06:01:32 AM 52.1500 6.5240 292° West 440 506 38,000  Level FlightAware ADS-B
Fri 06:02:17 AM 52.1770 6.3830 287° West 441 507 38,000  Level FlightAware ADS-B
Fri 06:02:57 AM 52.2010 6.2500 286° West 441 507 38,000  Level FlightAware ADS-B
Fri 06:03:37 AM 52.2220 6.1240 285° West 437 503 38,000  Level FlightAware ADS-B
Fri 06:04:22 AM 52.2470 5.9860 287° West 435 501 38,000  Level FlightAware ADS-B
Fri 06:05:02 AM 52.2680 5.8640 286° West 433 498 38,000  Level FlightAware ADS-B
Fri 06:05:47 AM 52.2930 5.7160 285° West 429 494 38,000 -1,304 Level FlightAware ADS-B
Fri 06:06:11 AM 52.3080 5.6340 285° West 476 548 36,500  Descending FlightAware UK
Fri 06:06:27 AM 52.3140 5.5960 285° West 429 494 38,000 1,607 Climbing FlightAware ADS-B
Fri 06:07:07 AM 52.3370 5.4660 286° West 430 495 38,000 -1,607 Level FlightAware ADS-B
Fri 06:07:23 AM 52.3403 5.4058 286° West 476 548 36,500 -2,647 Descending FlightAware UK
Fri 06:07:41 AM 52.3553 5.3525 295° West 476 548 36,500 3,103 Level FlightAware UK
Fri 06:07:52 AM 52.3600 5.3360 295° West 430 495 38,000  Climbing FlightAware ADS-B
Fri 06:08:23 AM 52.3748 5.2194 295° West 478 550 36,500  Descending FlightAware UK
Fri 06:08:32 AM 52.3830 5.2030 295° West 431 496 38,000 1,667 Climbing FlightAware ADS-B
Fri 06:09:17 AM 52.4070 5.0610 286° West 431 496 38,000 -1,200 Level FlightAware ADS-B
Fri 06:09:47 AM 52.4197 4.9559 286° West 480 552 36,500  Descending FlightAware UK
Fri 06:09:57 AM 52.4280 4.9350 286° West 431 496 38,000  Climbing FlightAware ADS-B
Fri 06:10:23 AM 52.4406 4.8439 286° West 478 550 36,500  Descending FlightAware UK
Fri 06:10:37 AM 52.4490 4.8110 286° West 430 495 38,000  Climbing FlightAware ADS-B
Fri 06:10:53 AM 52.4604 4.7518 286° West 480 552 36,500 -2,250 Descending FlightAware UK
Fri 06:11:17 AM 52.4717 4.6761 284° West 478 550 36,500 3,103 Level FlightAware UK
Fri 06:11:22 AM 52.4730 4.6700 284° West 429 494 38,000  Climbing FlightAware ADS-B
Fri 06:11:41 AM 52.4853 4.6013 284° West 476 548 36,500  Descending FlightAware UK
Fri 06:12:02 AM 52.4920 4.5560 284° West 430 495 38,000  Climbing FlightAware ADS-B
Fri 06:12:35 AM 52.5124 4.4318 284° West 476 548 36,500  Descending FlightAware UK
Fri 06:12:42 AM 52.5130 4.4220 284° West 431 496 38,000  Climbing FlightAware ADS-B
Fri 06:13:05 AM 52.5275 4.3373 284° West 478 550 36,500  Descending FlightAware UK
Fri 06:13:27 AM 52.5370 4.2730 284° West 433 498 38,000 1,579 Climbing FlightAware ADS-B
Fri 06:14:02 AM 52.5550 4.1660 286° West 435 501 38,000 -1,607 Level FlightAware ADS-B
Fri 06:14:23 AM 52.5684 4.0902 286° West 478 550 36,500  Descending FlightAware UK
Fri 06:14:52 AM 52.5900 4.0130 286° West 446 513 38,000 1,304 Climbing FlightAware ADS-B
Fri 06:15:32 AM 52.6360 3.8990 304° West 456 525 38,000 -1,343 Level FlightAware ADS-B
Fri 06:15:59 AM 52.6750 3.8114 304° West 480 552 36,500  Descending FlightAware UK
Fri 06:16:17 AM 52.6920 3.7700 304° West 456 525 38,000  Climbing FlightAware ADS-B
Fri 06:16:41 AM 52.7256 3.6927 304° West 478 550 36,500  Descending FlightAware UK
Fri 06:16:57 AM 52.7420 3.6550 304° West 459 528 38,000  Climbing FlightAware ADS-B
Fri 06:17:23 AM 52.7842 3.5817 304° West 478 550 36,500  Descending FlightAware UK
Fri 06:17:37 AM 52.8010 3.5550 304° West 472 543 38,000  Climbing FlightAware ADS-B
Fri 06:17:53 AM 52.8326 3.5077 304° West 480 552 36,500  Descending FlightAware UK
Fri 06:18:12 AM 52.8570 3.4700 304° West 472 543 38,000  Climbing FlightAware ADS-B
Fri 06:18:41 AM 52.9087 3.3905 304° West 482 555 36,500  Descending FlightAware UK
Fri 06:19:02 AM 52.9390 3.3450 304° West 469 540 38,000 1,364 Climbing FlightAware ADS-B
Fri 06:19:47 AM 53.0080 3.2390 317° Northwest 469 540 38,000 -1,304 Level FlightAware ADS-B
Fri 06:20:11 AM 53.0446 3.1622 317° Northwest 476 548 36,500  Descending FlightAware UK
Fri 06:20:27 AM 53.0560 3.1230 317° Northwest 445 512 38,000 1,607 Climbing FlightAware ADS-B
Fri 06:21:07 AM 53.0780 3.0000 287° West 440 506 38,000 -1,452 Level FlightAware ADS-B
Fri 06:21:29 AM 53.0926 2.9116 287° West 480 552 36,500  Descending FlightAware UK
Fri 06:21:52 AM 53.1020 2.8540 287° West 440 506 38,000  Climbing FlightAware ADS-B
Fri 06:22:17 AM 53.1186 2.7556 287° West 480 552 36,500  Descending FlightAware UK
Fri 06:22:32 AM 53.1250 2.7170 287° West 441 507 38,000  Climbing FlightAware ADS-B
Fri 06:22:59 AM 53.1416 2.6188 287° West 480 552 36,500  Descending FlightAware UK
Fri 06:23:17 AM 53.1510 2.5690 287° West 442 509 38,000  Climbing FlightAware ADS-B
Fri 06:23:53 AM 53.1716 2.4422 287° West 480 552 36,500  Descending FlightAware UK
Fri 06:23:57 AM 53.1730 2.4350 287° West 443 510 38,000  Climbing FlightAware ADS-B
Fri 06:24:23 AM 53.1879 2.3435 287° West 482 555 36,500  Descending FlightAware UK
Fri 06:24:42 AM 53.1960 2.2910 287° West 444 511 38,000  Climbing FlightAware ADS-B
Fri 06:24:58 AM 53.2066 2.2250 287° West 484 557 36,500 -2,647 Descending FlightAware UK
Fri 06:25:16 AM 53.2160 2.1654 285° West 486 559 36,500 3,750 Level FlightAware UK
Fri 06:25:22 AM 53.2180 2.1570 285° West 446 513 38,000 1,957 Climbing FlightAware ADS-B
Fri 06:26:02 AM 53.2390 2.0240 285° West 445 512 38,000 -1,364 Level FlightAware ADS-B
Fri 06:26:28 AM 53.2538 1.9268 285° West 486 559 36,500  Descending FlightAware UK
Fri 06:26:47 AM 53.2620 1.8750 285° West 444 511 38,000  Climbing FlightAware ADS-B
Fri 06:27:04 AM 53.2727 1.8082 285° West 486 559 36,500  Descending FlightAware UK
Fri 06:27:23 AM 53.2823 1.7471 285° West 443 510 38,000  Climbing FlightAware ADS-B
Fri 06:27:40 AM 53.2911 1.6893 285° West 486 559 36,500  Descending FlightAware UK
Fri 06:27:57 AM 53.2993 1.6374 285° West 442 509 38,000  Climbing FlightAware ADS-B
Fri 06:28:16 AM 53.3094 1.5712 285° West 484 557 36,500  Descending FlightAware UK
Fri 06:28:28 AM 53.3155 1.5327 285° West 442 509 38,000  Climbing FlightAware ADS-B
Fri 06:28:52 AM 53.3276 1.4528 285° West 484 557 36,500  Descending FlightAware UK
Fri 06:29:00 AM 53.3317 1.4270 285° West 443 510 38,000  Climbing FlightAware ADS-B
Fri 06:29:22 AM 53.3427 1.3538 285° West 484 557 36,500 -194 Descending FlightAware UK
Fri 06:29:31 AM 53.3469 1.3272 285° West 443 510 37,900 -327 Climbing FlightAware ADS-B
Fri 06:30:17 AM 53.3690 1.1830 284° West 444 511 36,200 -3,217 Descending FlightAware ADS-B
Fri 06:30:40 AM 53.3820 1.0953 284° West 492 566 34,200 -1,350 Descending FlightAware UK
Fri 06:30:57 AM 53.3890 1.0520 284° West 419 482 35,300 -2,500 Climbing FlightAware ADS-B
Fri 06:31:16 AM 53.3990 0.9824 284° West 480 552 32,700 -2,250 Descending FlightAware UK
Fri 06:31:37 AM 53.4070 0.9250 284° West 412 474 33,800 -1,750 Climbing FlightAware ADS-B
Fri 06:31:40 AM 53.4096 0.9084 284° West 472 543 32,000 -8,800 Descending FlightAware UK
Fri 06:31:52 AM 53.4150 0.8715 284° West 466 536 31,600 -2,333 Descending FlightAware UK
Fri 06:32:16 AM 53.4257 0.7989 284° West 454 522 30,600 800 Descending FlightAware UK
Fri 06:32:22 AM 53.4280 0.7850 284° West 399 459 32,000 -1,500 Climbing FlightAware ADS-B
Fri 06:32:40 AM 53.4361 0.7274 284° West 452 520 30,000 -4,167 Descending FlightAware UK
Fri 06:32:58 AM 53.4438 0.6750 284° West 448 516 29,500 2,727 Descending FlightAware UK
Fri 06:33:02 AM 53.4440 0.6770 284° West 385 443 31,000 -2,069 Climbing FlightAware ADS-B
Fri 06:33:27 AM 53.4561 0.5902 284° West 436 502 28,500 -4,186 Descending FlightAware UK
Fri 06:33:45 AM 53.4633 0.5397 284° West 428 493 28,000 3,000 Descending FlightAware UK
Fri 06:33:47 AM 53.4630 0.5410 284° West 370 426 29,500 -2,000 Climbing FlightAware ADS-B
Fri 06:34:03 AM 53.4706 0.4896 284° West 422 486 27,400 -4,200 Descending FlightAware UK
Fri 06:34:27 AM 53.4800 0.4241 284° West 418 481 26,700 2,500 Descending FlightAware UK
Fri 06:34:27 AM 53.4780 0.4380 284° West 360 414 28,400 3,900 Climbing FlightAware ADS-B
Fri 06:34:47 AM 53.4875 0.3714 283° West 359 413 28,000 -453 Descending FlightAware ADS-B
Fri 06:35:20 AM 53.4993 0.2826 283° West 362 417 28,000  Level FlightAware ADS-B
Fri 06:35:51 AM 53.5107 0.1972 283° West 363 418 28,000  Level FlightAware ADS-B
Fri 06:36:22 AM 53.5222 0.1117 283° West 363 418 28,000  Level FlightAware ADS-B
Fri 06:36:53 AM 53.5332 0.0288 283° West 363 418 28,000 -1,525 Level FlightAware ADS-B
Fri 06:37:21 AM 53.5437 -0.0499 283° West 424 488 26,500  Descending FlightAware UK
Fri 06:37:32 AM 53.5475 -0.0792 283° West 366 421 28,000 2,093 Climbing FlightAware ADS-B
Fri 06:38:04 AM 53.5593 -0.1684 283° West 366 421 28,000 -1,837 Level FlightAware ADS-B
Fri 06:38:21 AM 53.5655 -0.2162 283° West 426 490 26,500  Descending FlightAware UK
Fri 06:38:42 AM 53.5720 -0.2660 283° West 365 420 28,000  Climbing FlightAware ADS-B
Fri 06:39:09 AM 53.5826 -0.3487 283° West 422 486 26,500  Descending FlightAware UK
Fri 06:39:22 AM 53.5860 -0.3760 283° West 366 421 28,000  Climbing FlightAware ADS-B
Fri 06:39:45 AM 53.5956 -0.4485 283° West 424 488 26,500 -2,195 Descending FlightAware UK
Fri 06:40:03 AM 53.6020 -0.4979 282° West 422 486 26,500 4,091 Level FlightAware UK
Fri 06:40:07 AM 53.6030 -0.5060 282° West 368 423 28,000  Climbing FlightAware ADS-B
Fri 06:40:27 AM 53.6106 -0.5647 282° West 422 486 26,500  Descending FlightAware UK
Fri 06:40:50 AM 53.6186 -0.6287 282° West 371 427 28,000 1,636 Climbing FlightAware ADS-B
Fri 06:41:22 AM 53.6300 -0.7192 282° West 373 429 28,000 -1,636 Level FlightAware ADS-B
Fri 06:41:45 AM 53.6384 -0.7859 282° West 424 488 26,500 -2,250 Descending FlightAware UK
Fri 06:42:02 AM 53.6448 -0.8364 282° West 424 488 26,500 2,903 Level FlightAware UK
Fri 06:42:16 AM 53.6495 -0.8736 282° West 373 429 28,000  Climbing FlightAware ADS-B
Fri 06:42:44 AM 53.6596 -0.9557 282° West 424 488 26,500  Descending FlightAware UK
Fri 06:42:52 AM 53.6610 -0.9700 282° West 375 432 28,000  Climbing FlightAware ADS-B
Fri 06:43:08 AM 53.6681 -1.0242 282° West 424 488 26,500  Descending FlightAware UK
Fri 06:43:18 AM 53.6713 -1.0514 282° West 375 432 28,000  Climbing FlightAware ADS-B
Fri 06:43:38 AM 53.6788 -1.1104 282° West 422 486 26,500 -2,280 Descending FlightAware UK
Fri 06:44:08 AM 53.6892 -1.1976 281° West 418 481 26,100 1,538 Descending FlightAware UK
Fri 06:44:17 AM 53.6910 -1.2170 281° West 376 433 27,500 -2,000 Climbing FlightAware ADS-B
Fri 06:44:38 AM 53.7002 -1.2835 281° West 420 483 25,100 -4,462 Descending FlightAware UK
Fri 06:44:56 AM 53.7142 -1.3322 296° West 410 472 24,600 3,474 Descending FlightAware UK
Fri 06:44:57 AM 53.7130 -1.3280 296° West 390 449 26,200 -2,000 Climbing FlightAware ADS-B
Fri 06:45:14 AM 53.7331 -1.3778 296° West 410 472 24,000 -4,098 Descending FlightAware UK
Fri 06:45:38 AM 53.7670 -1.4271 319° Northwest 404 465 23,400 1,929 Descending FlightAware UK
Fri 06:45:42 AM 53.7680 -1.4280 319° Northwest 414 476 24,900 -1,800 Climbing FlightAware ADS-B
Fri 06:46:08 AM 53.8141 -1.4813 319° Northwest 400 460 22,500 -1,500 Descending FlightAware UK
Fri 06:46:22 AM 53.8300 -1.4990 319° Northwest 400 460 23,900 -1,333 Climbing FlightAware ADS-B
Fri 06:46:44 AM 53.8691 -1.5434 319° Northwest 392 451 21,700 -4,050 Descending FlightAware UK
Fri 06:47:02 AM 53.8960 -1.5739 326° Northwest 384 442 21,200 2,609 Descending FlightAware UK
Fri 06:47:07 AM 53.8970 -1.5750 326° Northwest 385 443 22,700 400 Climbing FlightAware ADS-B
Fri 06:47:47 AM 53.9550 -1.6420 326° Northwest 377 434 21,500 -2,955 Descending FlightAware ADS-B
Fri 06:48:14 AM 54.0002 -1.6940 326° Northwest 376 433 19,400 -1,350 Descending FlightAware UK
Fri 06:48:27 AM 54.0120 -1.7080 326° Northwest 359 413 20,600 -310 Climbing FlightAware ADS-B
Fri 06:49:12 AM 54.0750 -1.7810 326° Northwest 353 406 19,100 -3,415 Descending FlightAware ADS-B
Fri 06:49:32 AM 54.1057 -1.8165 326° Northwest 358 412 16,900 -1,733 Descending FlightAware UK
Fri 06:49:57 AM 54.1360 -1.8410 326° Northwest 355 409 17,800 900 Climbing FlightAware ADS-B
Fri 06:50:12 AM 54.1600 -1.8460 353° North 356 410 17,500 -1,371 Descending FlightAware ADS-B
Fri 06:50:32 AM 54.1920 -1.8420 North 357 411 17,000 -3,789 Descending FlightAware ADS-B
Fri 06:50:50 AM 54.2291 -1.8353 North 344 396 15,100 -3,000 Descending FlightAware UK
Fri 06:51:14 AM 54.2678 -1.8298 North 346 398 14,900 2,889 Descending FlightAware UK
Fri 06:51:17 AM 54.2660 -1.8300 North 350 403 16,400 -1,333 Climbing FlightAware ADS-B
Fri 06:51:32 AM 54.2966 -1.8257 North 344 396 14,500 -4,364 Descending FlightAware UK
Fri 06:51:50 AM 54.3251 -1.8216 North 340 391 14,000 1,400 Descending FlightAware UK
Fri 06:52:02 AM 54.3420 -1.8200 North 339 390 15,200 577 Climbing FlightAware ADS-B
Fri 06:52:42 AM 54.4000 -1.8110 North 323 372 14,500 -1,412 Descending FlightAware ADS-B
Fri 06:53:27 AM 54.4670 -1.8020 North 322 371 13,200 -3,265 Descending FlightAware ADS-B
Fri 06:53:50 AM 54.5041 -1.7960 North 328 377 10,800 -1,800 Descending FlightAware UK
Fri 06:54:07 AM 54.5270 -1.7850 North 327 376 12,000 -1,625 Climbing FlightAware ADS-B
Fri 06:54:38 AM 54.5745 -1.7627 North 320 368 9,500 -1,650 Descending FlightAware UK
Fri 06:54:47 AM 54.5820 -1.7590 North 324 373 10,900 1,000 Climbing FlightAware ADS-B
Fri 06:55:32 AM 54.6480 -1.7280 15° North 294 338 10,400 -2,190 Descending FlightAware ADS-B
Fri 06:55:50 AM 54.6722 -1.7152 15° North 282 325 8,600 -750 Descending FlightAware UK
Fri 06:56:12 AM 54.6970 -1.7030 15° North 274 315 9,900 808 Climbing FlightAware ADS-B
Fri 06:56:42 AM 54.7340 -1.6850 16° North 269 310 9,300 -1,100 Descending FlightAware ADS-B
Fri 06:57:12 AM 54.7640 -1.6700 16° North 267 307 8,800 -1,200 Descending FlightAware ADS-B
Fri 06:57:22 AM 54.7790 -1.6630 15° North 267 307 8,500 -5,077 Descending FlightAware ADS-B
Fri 06:57:38 AM 54.8018 -1.6519 15° North 266 306 6,600 -1,200 Descending FlightAware UK
Fri 06:57:52 AM 54.8160 -1.6420 15° North 266 306 7,900 2,069 Climbing FlightAware ADS-B
Fri 06:58:07 AM 54.8320 -1.6270 28° Northeast 267 307 7,600 -1,371 Descending FlightAware ADS-B
Fri 06:58:27 AM 54.8540 -1.6050 30° Northeast 262 302 7,100 -4,216 Descending FlightAware ADS-B
Fri 06:58:44 AM 54.8729 -1.5853 30° Northeast 258 297 5,000 -1,543 Descending FlightAware UK
Fri 06:59:02 AM 54.8880 -1.5710 30° Northeast 261 300 6,200 789 Climbing FlightAware ADS-B
Fri 06:59:22 AM 54.9100 -1.5490 30° Northeast 254 292 5,500 -1,350 Descending FlightAware ADS-B
Fri 06:59:42 AM 54.9290 -1.5300 30° Northeast 245 282 5,300 -3,000 Descending FlightAware ADS-B
Fri 07:00:02 AM 54.9504 -1.5080 30° Northeast 228 262 3,500 -600 Descending FlightAware UK
Fri 07:00:02 AM 54.9490 -1.5110 30° Northeast 237 273 5,100 -500 Climbing FlightAware ADS-B
Fri 07:00:26 AM 54.9735 -1.4849 30° Northeast 218 251 3,300 -600 Descending FlightAware UK
Fri 07:00:52 AM 54.9920 -1.4660 30° Northeast 209 241 4,600 1,059 Climbing FlightAware ADS-B
Fri 07:01:17 AM 55.0120 -1.4450 31° Northeast 194 223 4,200 -3,261 Descending FlightAware ADS-B
Fri 07:01:38 AM 55.0307 -1.4239 31° Northeast 184 212 2,100 -1,371 Descending FlightAware UK
Fri 07:01:52 AM 55.0400 -1.4240 31° Northeast 177 204 3,400 2,750 Climbing FlightAware ADS-B
Fri 07:02:02 AM 55.0480 -1.4280 344° North 172 198 3,200 -1,200 Descending FlightAware ADS-B
Fri 07:02:32 AM 55.0710 -1.4430 340° North 166 191 2,600 -1,200 Descending FlightAware ADS-B
Fri 07:02:47 AM 55.0760 -1.4600 297° West 162 186 2,300 -4,200 Descending FlightAware ADS-B
Fri 07:03:02 AM 55.0779 -1.4858 297° West 1 1 500 -480 Descending FlightAware UK
Fri 07:03:12 AM 55.0790 -1.4930 297° West 160 184 2,100 3,200 Climbing FlightAware ADS-B
Fri 07:03:32 AM 55.0800 -1.5180 274° West 148 170 2,100 -133 Level FlightAware ADS-B
Fri 07:03:57 AM 55.0760 -1.5460 256° West 149 171 2,000 -343 Descending FlightAware ADS-B
Fri 07:04:07 AM 55.0730 -1.5570 245° Southwest 157 181 1,900 -900 Descending FlightAware ADS-B
Fri 07:04:37 AM 55.0650 -1.5890 246° West 132 152 1,400 -900 Descending FlightAware ADS-B
Fri 07:04:47 AM 55.0620 -1.5980 240° Southwest 127 146 1,300 -600 Descending FlightAware ADS-B
Fri 07:05:17 AM 55.0550 -1.6260 246° West 128 147 1,000 -700 Descending FlightAware ADS-B
Fri 07:05:47 AM 55.0470 -1.6540 244° Southwest 127 146 600 -873 Descending FlightAware ADS-B
Fri 07:06:12 AM 55.0410 -1.6790 247° West 129 148 200 -960 Descending FlightAware ADS-B

Login

Don't have an account? Register now (free) for customized features, flight alerts, and more!